Latest Weather Observations for Pound Creek

IDV60801

Issued at 6:32 am EDT Wednesday 7 December 2016 (issued every 30 minutes, with the page automatically refreshed every 10 minutes)

About weather observations | Map of weather stations | Latest weather observations for VIC | Other Formats
Station Details ID: 085099 Name: POUND CREEK Lat: -38.63 Lon: 145.81 Height: 3.0 m
Data from the previous 72 hours. | See also: Recent months at Pound Creek
Date/Time
EDT
Temp
°C
App
Temp
°C
Dew
Point
°C
Rel
Hum
%
Delta-T
°C
Wind Press
QNH
hPa
Press
MSL
hPa
Rain since
9am
mm
Dir  Spd
km/h
Gust
km/h
Spd
kts
Gust
kts
07/06:30am 8.3 5.5 7.1 92 0.6 N 11 15 6 8 1015.3 1015.3 0.0
07/06:00am 7.8 5.9 6.6 92 0.6 NNE 6 9 3 5 1015.2 1015.2 0.0
07/05:30am 7.9 5.4 6.5 91 0.6 N 9 13 5 7 1014.9 1014.9 0.0
07/05:00am 8.6 6.2 7.2 91 0.7 N 9 13 5 7 1014.6 1014.6 0.0
07/04:30am 7.9 5.4 6.7 92 0.6 N 9 11 5 6 1014.5 1014.5 0.0
07/04:00am 7.8 5.7 6.7 93 0.5 N 7 11 4 6 1014.4 1014.4 0.0
07/03:30am 7.5 5.3 6.3 92 0.5 N 7 9 4 5 1014.4 1014.4 0.0
07/03:00am 7.5 4.9 6.3 92 0.5 N 9 11 5 6 1014.6 1014.6 0.0
07/02:30am 7.6 5.4 6.4 92 0.5 N 7 9 4 5 1014.8 1014.8 0.0
07/02:00am 7.9 5.4 6.5 91 0.6 N 9 11 5 6 1015.1 1015.1 0.0
07/01:30am 8.0 5.5 6.5 90 0.7 N 9 13 5 7 1015.3 1015.3 0.0
07/01:00am 8.4 6.0 6.9 90 0.7 N 9 13 5 7 1015.4 1015.4 0.0
07/12:30am 9.0 6.7 7.3 89 0.8 NNW 9 11 5 6 1015.6 1015.6 0.0
07/12:00am 8.7 6.6 6.7 87 0.9 NNW 7 9 4 5 1015.7 1015.7 0.0
 
Date/Time
EDT
Temp
°C
App
Temp
°C
Dew
Point
°C
Rel
Hum
%
Delta-T
°C
Wind Press
QNH
hPa
Press
MSL
hPa
Rain since
9am
mm
Dir  Spd
km/h
Gust
km/h
Spd
kts
Gust
kts
06/11:30pm 9.5 7.2 7.3 86 1.0 NNW 9 11 5 6 1015.7 1015.7 0.0
06/11:00pm 9.8 8.0 7.2 84 1.2 WNW 6 9 3 5 1015.8 1015.8 0.0
06/10:30pm 10.1 8.3 7.3 83 1.3 WNW 6 7 3 4 1015.6 1015.6 0.0
06/10:00pm 11.3 9.6 8.2 81 1.5 WSW 7 9 4 5 1015.5 1015.5 0.0
06/09:30pm 11.6 9.1 8.3 80 1.6 SW 11 15 6 8 1015.2 1015.2 0.0
06/09:00pm 12.6 10.1 8.3 75 2.1 SW 11 15 6 8 1015.1 1015.1 0.0
06/08:30pm 13.3 10.3 7.5 68 2.8 SW 13 20 7 11 1014.9 1014.9 0.0
06/08:00pm 14.3 10.7 8.3 67 3.0 SW 17 20 9 11 1014.8 1014.8 0.0
06/07:30pm 15.2 11.2 8.2 63 3.5 SW 19 24 10 13 1014.9 1014.9 0.0
06/07:00pm 15.8 11.8 8.3 61 3.8 SW 19 26 10 14 1014.6 1014.6 0.0
06/06:30pm 16.1 12.3 9.1 63 3.6 SW 19 26 10 14 1014.6 1014.6 0.0
06/06:00pm 16.5 12.4 7.7 56 4.4 SW 19 28 10 15 1014.2 1014.2 0.0
06/05:30pm 16.4 11.9 7.1 54 4.6 SW 20 26 11 14 1014.0 1014.0 0.0
06/05:00pm 17.5 13.7 9.2 58 4.3 SW 19 30 10 16 1013.9 1013.9 0.0
06/04:30pm 17.3 12.4 6.8 50 5.2 SW 22 32 12 17 1013.9 1013.9 0.0
06/04:00pm 17.7 13.3 7.4 51 5.2 SW 20 30 11 16 1014.0 1014.0 0.0
06/03:30pm 17.1 11.9 9.0 59 4.2 SW 26 32 14 17 1014.0 1014.0 0.0
06/03:00pm 17.6 12.4 9.0 57 4.5 SW 26 35 14 19 1014.0 1014.0 0.0
06/02:30pm 16.5 11.7 7.2 54 4.6 SW 22 33 12 18 1014.1 1014.1 0.0
06/02:00pm 17.1 12.4 7.7 54 4.7 SW 22 32 12 17 1014.0 1014.0 0.0
06/01:30pm 17.1 11.8 8.5 57 4.4 SW 26 33 14 18 1014.1 1014.1 0.0
06/01:00pm 16.5 12.4 8.7 60 4.0 SW 20 30 11 16 1014.0 1014.0 0.0
06/12:30pm 16.7 12.8 8.7 59 4.1 SW 19 26 10 14 1014.2 1014.2 0.0
06/12:00pm 16.0 11.9 8.7 62 3.7 SW 20 30 11 16 1014.1 1014.1 0.0
06/11:30am 16.3 13.8 9.7 65 3.4 SW 13 20 7 11 1013.7 1013.7 0.0
06/11:00am 15.4 12.7 8.9 65 3.3 SW 13 19 7 10 1013.7 1013.7 0.0
06/10:30am 15.3 13.1 9.2 67 3.1 SW 11 19 6 10 1014.3 1014.3 0.0
06/10:00am 15.4 13.0 10.0 70 2.8 SW 13 20 7 11 1014.1 1014.1 0.0
06/09:30am 14.9 13.2 9.7 71 2.7 SW 9 13 5 7 1014.2 1014.2 0.0
06/09:00am 14.1 12.3 9.3 73 2.4 WSW 9 15 5 8 1013.9 1013.9 0.2
06/08:30am 13.3 13.6 11.0 86 1.2 CALM 0 0 0 0 1013.7 1013.7 0.2
06/08:00am 12.4 12.0 11.0 91 0.7 N 4 4 2 2 1013.9 1013.9 0.2
06/07:30am 11.7 11.1 10.4 92 0.7 N 4 6 2 3 1013.7 1013.7 0.2
06/07:00am 10.7 9.5 9.6 93 0.6 NNW 6 9 3 5 1014.0 1014.0 0.2
06/06:30am 10.0 8.6 8.9 93 0.5 NNW 6 7 3 4 1013.5 1013.5 0.2
06/06:00am 9.8 8.2 8.9 94 0.4 NNW 7 7 4 4 1013.1 1013.1 0.2
06/05:30am 9.9 8.9 8.8 93 0.5 N 4 6 2 3 1012.5 1012.5 0.2
06/05:00am 10.3 10.1 8.9 91 0.7 CALM 0 4 0 2 1012.1 1012.1 0.2
06/04:30am 10.8 10.3 9.4 91 0.7 NE 2 4 1 2 1011.6 1011.6 0.2
06/04:00am 11.0 9.8 9.6 91 0.7 E 6 7 3 4 1011.1 1011.1 0.2
06/03:30am 11.9 11.7 10.5 91 0.7 E 2 4 1 2 1011.5 1011.5 0.2
06/03:00am 12.4 12.7 10.8 90 0.8 CALM 0 0 0 0 1012.3 1012.3 0.2
06/02:30am 12.5 12.8 10.9 90 0.8 CALM 0 0 0 0 1012.5 1012.5 0.2
06/02:00am 12.7 12.6 10.9 89 0.9 E 2 2 1 1 1012.8 1012.8 0.2
06/01:30am 13.1 12.7 11.0 87 1.1 ENE 4 4 2 2 1013.2 1013.2 0.2
06/01:00am 13.2 13.1 10.9 86 1.2 E 2 4 1 2 1013.2 1013.2 0.2
06/12:30am 13.6 13.2 11.0 84 1.4 ESE 4 6 2 3 1013.4 1013.4 0.2
06/12:00am 13.8 12.9 10.8 82 1.6 E 6 9 3 5 1014.0 1014.0 0.2
 
Date/Time
EDT
Temp
°C
App
Temp
°C
Dew
Point
°C
Rel
Hum
%
Delta-T
°C
Wind Press
QNH
hPa
Press
MSL
hPa
Rain since
9am
mm
Dir  Spd
km/h
Gust
km/h
Spd
kts
Gust
kts
05/11:30pm 14.1 13.2 10.7 80 1.8 SSE 6 9 3 5 1013.9 1013.9 0.2
05/11:00pm 14.2 12.3 10.6 79 1.9 S 11 19 6 10 1014.0 1014.0 0.2
05/10:30pm 13.9 12.9 11.1 83 1.5 SSW 7 11 4 6 1014.9 1014.9 0.2
05/10:00pm 14.2 13.8 11.0 81 1.7 SSW 4 6 2 3 1014.8 1014.8 0.2
05/09:30pm 13.9 13.5 11.2 84 1.4 SSW 4 6 2 3 1014.7 1014.7 0.2
05/09:00pm 13.7 13.3 11.2 85 1.3 S 4 6 2 3 1013.3 1013.3 0.2
05/08:30pm 14.1 13.2 11.3 83 1.5 SSW 7 9 4 5 1013.9 1013.9 0.2
05/08:00pm 14.7 13.9 11.7 82 1.6 SSW 7 9 4 5 1013.7 1013.7 0.2
05/07:30pm 15.1 13.5 11.7 80 1.8 SW 11 15 6 8 1013.6 1013.6 0.2
05/07:00pm 15.4 12.9 11.2 76 2.2 SW 15 20 8 11 1013.5 1013.5 0.2
05/06:30pm 15.6 12.8 11.2 75 2.4 SW 17 24 9 13 1012.9 1012.9 0.2
05/06:00pm 16.0 12.7 11.6 75 2.4 SW 20 26 11 14 1012.6 1012.6 0.2
05/05:30pm 16.6 13.3 11.7 73 2.7 WSW 20 26 11 14 1013.1 1013.1 0.2
05/05:00pm 17.3 14.1 12.0 71 2.9 SW 20 26 11 14 1013.0 1013.0 0.2
05/04:30pm 17.5 14.1 11.1 66 3.5 WSW 20 30 11 16 1013.0 1013.0 0.2
05/04:00pm 18.0 14.4 10.6 62 4.0 SW 20 28 11 15 1012.5 1012.5 0.2
05/03:30pm 18.5 15.3 11.8 65 3.7 SW 20 32 11 17 1011.9 1011.9 0.2
05/03:00pm 18.2 14.1 11.5 65 3.7 WSW 24 35 13 19 1012.3 1012.3 0.2
05/02:30pm 18.1 12.8 11.2 64 3.7 SW 30 39 16 21 1012.4 1012.4 0.2
05/02:00pm 18.7 14.0 10.5 59 4.4 SW 26 35 14 19 1012.3 1012.3 0.2
05/01:30pm 18.4 13.7 10.5 60 4.2 WSW 26 37 14 20 1012.4 1012.4 0.2
05/01:00pm 17.8 12.3 10.4 62 4.0 WSW 30 39 16 21 1012.3 1012.3 0.2
05/12:30pm 18.0 12.4 11.6 66 3.5 WSW 32 43 17 23 1012.1 1012.1 0.0
05/12:00pm 17.3 12.7 11.1 67 3.3 WSW 26 39 14 21 1012.2 1012.2 0.0
05/11:30am 17.4 12.6 10.3 63 3.8 WSW 26 35 14 19 1012.1 1012.1 0.0
05/11:00am 16.9 12.4 10.1 64 3.6 WSW 24 32 13 17 1011.8 1011.8 0.0
05/10:30am 16.8 12.8 10.4 66 3.4 WSW 22 32 12 17 1011.9 1011.9 0.0
05/10:00am 16.5 12.2 10.6 68 3.1 WSW 24 33 13 18 1011.7 1011.7 0.0
05/09:30am 16.0 11.2 10.3 69 3.0 WSW 26 37 14 20 1011.4 1011.4 0.0
05/09:00am 15.8 10.8 10.8 72 2.7 WSW 28 35 15 19 1010.9 1010.9 0.0
05/08:30am 15.7 11.1 11.1 74 2.5 WSW 26 37 14 20 1010.5 1010.5 0.0
05/08:00am 15.8 11.9 12.0 78 2.1 WSW 24 35 13 19 1009.9 1009.9 0.0
05/07:30am 15.9 12.0 13.2 84 1.5 WSW 26 37 14 20 1009.3 1009.3 0.0
05/07:00am 16.0 12.5 13.5 85 1.4 WSW 24 39 13 21 1008.6 1008.6 0.0
05/06:30am 16.4 12.8 12.9 80 1.9 WSW 24 35 13 19 1008.1 1008.1 0.0
05/06:00am 16.5 13.7 14.3 87 1.3 WSW 22 33 12 18 1007.3 1007.3 0.0
05/05:30am 16.8 12.5 14.4 86 1.4 WSW 30 43 16 23 1006.5 1006.5 0.0
05/05:00am 17.6 12.8 15.6 88 1.2 WSW 35 50 19 27 1005.5 1005.5 0.0
05/04:55am 17.8 13.0 15.6 87 1.3 WSW 35 52 19 28 1005.2 1005.2 0.0
05/04:38am 22.8 21.2 16.1 66 4.1 W 19 54 10 29 1004.2 1004.2 0.0
05/04:30am 23.1 22.2 15.9 64 4.3 WNW 15 24 8 13 1003.1 1003.1 0.0
05/04:00am 22.4 22.4 16.2 68 3.8 NW 11 20 6 11 1002.7 1002.7 0.0
05/03:30am 22.4 22.3 16.0 67 3.9 WNW 11 19 6 10 1002.5 1002.5 0.0
05/03:00am 22.9 21.9 15.7 64 4.3 NW 15 26 8 14 1002.1 1002.1 0.0
05/02:30am 22.7 21.8 15.8 65 4.2 NW 15 28 8 15 1002.4 1002.4 0.0
05/02:00am 23.1 22.2 15.9 64 4.4 NW 15 22 8 12 1002.5 1002.5 0.0
05/01:30am 23.2 22.0 16.0 64 4.4 NNW 17 28 9 15 1002.6 1002.6 0.0
05/01:00am 22.8 22.1 16.4 67 3.9 N 15 26 8 14 1002.8 1002.8 0.0
05/12:30am 22.2 21.8 16.2 69 3.6 N 13 20 7 11 1003.1 1003.1 0.0
05/12:00am 21.0 21.4 16.4 75 2.8 N 9 13 5 7 1003.6 1003.6 0.0
 
Date/Time
EDT
Temp
°C
App
Temp
°C
Dew
Point
°C
Rel
Hum
%
Delta-T
°C
Wind Press
QNH
hPa
Press
MSL
hPa
Rain since
9am
mm
Dir  Spd
km/h
Gust
km/h
Spd
kts
Gust
kts
04/11:30pm 20.0 20.7 16.2 79 2.3 N 7 13 4 7 1004.0 1004.0 0.0
04/11:00pm 19.7 20.6 16.5 82 1.9 NNE 7 11 4 6 1004.2 1004.2 0.0
04/10:30pm 20.4 20.9 16.6 79 2.3 N 9 13 5 7 1005.1 1005.1 0.0
04/10:00pm 20.5 21.7 16.9 80 2.2 N 6 11 3 6 1005.7 1005.7 0.0
04/09:30pm 20.9 21.4 16.5 76 2.7 NNW 9 13 5 7 1006.2 1006.2 0.0
04/09:00pm 20.9 20.7 16.7 77 2.6 N 13 19 7 10 1006.3 1006.3 0.0
04/08:30pm 21.7 21.3 16.2 71 3.3 NNW 13 19 7 10 1006.2 1006.2 0.0
04/08:00pm 22.4 21.6 16.2 68 3.8 NW 15 26 8 14 1006.6 1006.6 0.0
04/07:30pm 25.5 22.3 15.2 53 6.2 NNW 26 41 14 22 1006.0 1006.0 0.0
04/07:00pm 26.4 25.3 15.4 50 6.7 NNW 15 28 8 15 1005.3 1005.3 0.0
04/06:30pm 26.1 27.9 18.2 61 5.0 N 6 9 3 5 1004.5 1004.5 0.0
04/06:00pm 27.0 28.7 18.0 58 5.7 NNE 6 9 3 5 1004.2 1004.2 0.0
04/05:30pm 27.4 30.1 19.5 62 5.1 NNE 4 6 2 3 1004.5 1004.5 0.0
04/05:00pm 27.8 29.2 17.9 54 6.3 N 7 13 4 7 1005.0 1005.0 0.0
04/04:30pm 28.5 29.2 17.1 50 7.2 N 9 15 5 8 1005.4 1005.4 0.0
04/04:00pm 28.6 28.6 16.2 47 7.7 N 11 17 6 9 1005.9 1005.9 0.0
04/03:30pm 28.9 28.6 15.4 44 8.3 N 11 19 6 10 1005.8 1005.8 0.0
04/03:00pm 29.4 27.8 14.0 39 9.3 N 15 24 8 13 1006.0 1006.0 0.0
04/02:30pm 29.3 28.5 15.1 42 8.7 NNE 13 19 7 10 1006.4 1006.4 0.0
04/02:00pm 28.9 28.6 15.4 44 8.3 NNE 11 20 6 11 1006.9 1006.9 0.0
04/01:30pm 28.3 28.8 16.6 49 7.3 NE 9 15 5 8 1007.5 1007.5 0.0
04/01:00pm 26.8 26.7 16.1 52 6.6 ENE 11 15 6 8 1008.0 1008.0 0.0
04/12:30pm 26.4 26.2 16.6 55 6.1 ENE 13 20 7 11 1008.1 1008.1 0.0
04/12:00pm 25.6 25.4 16.7 58 5.5 ENE 13 19 7 10 1008.7 1008.7 0.0
04/11:30am 24.6 24.6 17.1 63 4.6 ENE 13 19 7 10 1009.2 1009.2 0.0
04/11:00am 23.1 22.0 16.4 66 4.1 ENE 17 20 9 11 1009.5 1009.5 0.0
04/10:30am 22.8 22.2 16.6 68 3.8 ENE 15 19 8 10 1009.9 1009.9 0.0
04/10:00am 21.6 21.2 16.1 71 3.3 ENE 13 19 7 10 1010.3 1010.3 0.0
04/09:30am 19.2 18.8 15.1 77 2.4 ENE 11 17 6 9 1010.6 1010.6 0.0
04/09:00am 17.9 17.4 14.8 82 1.8 ENE 11 17 6 9 1011.0 1011.0 0.0
04/08:30am 16.6 15.4 14.1 85 1.4 ENE 13 19 7 10 1010.7 1010.7 0.0
04/08:00am 15.0 14.4 13.5 91 0.8 ENE 9 15 5 8 1011.2 1011.2 0.0
04/07:30am 13.6 13.1 12.5 93 0.6 E 7 11 4 6 1011.5 1011.5 0.0
04/07:00am 12.9 11.5 12.1 95 0.4 ENE 11 15 6 8 1011.4 1011.4 0.0

Other Formats:

Comma delimited format used in spreadsheet applications
http://www.bom.gov.au/fwo/IDV60801/IDV60801.94886.axf

JavaScript Object Notation format (JSON) in row-major order
http://www.bom.gov.au/fwo/IDV60801/IDV60801.94886.json